WAKK/MKQ METAR and TAF weather

Enter ICAO airport designator
Station Type Date Time Source
WAKK METAR 2021/03/12 06:00 UTC NOAA

WAKK 120600Z 08014KT 1000 TSRA FEW013CB BKN014 25/24 Q1009


Station Type Date Time Source
WAKK Decoded METAR 2021/03/12 06:00 UTC NOAA

Merauke / Mopah, Indonesia (WAKK) 08-28S 140-23E 3M
Mar 12, 2021 - 01:00 AM EST / 2021.03.12 0600 UTC
Wind: from the E (080 degrees) at 16 MPH (14 KT):0
Visibility: less than 1 mile:0
Sky conditions: mostly cloudy
Weather: rain with thunder; Cumulonimbus clouds observed
Temperature: 77 F (25 C)
Dew Point: 75 F (24 C)
Relative Humidity: 94%
Pressure (altimeter): 29.80 in. Hg (1009 hPa)
ob: WAKK 120600Z 08014KT 1000 TSRA FEW013CB BKN014 25/24 Q1009
cycle: 6

Station Type Date Time Source
WAKK TAF 2013/03/11 12:00 UTC NOAA

TAF WAKK 111100Z 1112/1212 34006KT 9999 SCT018
BECMG 1122/1124 30012KT
TEMPO 1200/1202 7000 -RA FEW017CB
BECMG 1208/1210 29006KT

Example: see airport list